sensor_id;sensor_type;location;lat;lon;timestamp;pressure;altitude;pressure_sealevel;temperature;humidity
18918;BME280;9591;52.742;13.650;2023-03-20T00:01:48;101052.38;;;12.46;100.00
18918;BME280;9591;52.742;13.650;2023-03-20T00:04:35;101054.97;;;12.47;100.00
18918;BME280;9591;52.742;13.650;2023-03-20T00:07:22;101047.78;;;12.25;100.00
18918;BME280;9591;52.742;13.650;2023-03-20T00:10:10;101051.47;;;12.21;100.00
18918;BME280;9591;52.742;13.650;2023-03-20T00:12:57;101048.03;;;12.17;100.00
18918;BME280;9591;52.742;13.650;2023-03-20T00:15:44;101051.25;;;12.02;100.00
18918;BME280;9591;52.742;13.650;2023-03-20T00:18:31;101053.09;;;12.00;100.00
18918;BME280;9591;52.742;13.650;2023-03-20T00:21:19;101051.50;;;11.94;100.00
18918;BME280;9591;52.742;13.650;2023-03-20T00:24:06;101047.28;;;12.13;100.00
18918;BME280;9591;52.742;13.650;2023-03-20T00:26:54;101047.81;;;11.98;100.00
18918;BME280;9591;52.742;13.650;2023-03-20T00:29:42;101046.44;;;11.87;100.00
18918;BME280;9591;52.742;13.650;2023-03-20T00:32:35;101046.63;;;11.80;100.00
18918;BME280;9591;52.742;13.650;2023-03-20T00:35:24;101043.31;;;11.72;100.00
18918;BME280;9591;52.742;13.650;2023-03-20T00:38:12;101039.94;;;11.67;100.00
18918;BME280;9591;52.742;13.650;2023-03-20T00:40:59;101036.13;;;11.48;100.00
18918;BME280;9591;52.742;13.650;2023-03-20T00:43:49;101040.66;;;11.44;100.00
18918;BME280;9591;52.742;13.650;2023-03-20T00:46:37;101043.25;;;11.46;100.00
18918;BME280;9591;52.742;13.650;2023-03-20T00:49:28;101034.13;;;11.27;100.00
18918;BME280;9591;52.742;13.650;2023-03-20T00:52:25;101042.47;;;11.14;100.00
18918;BME280;9591;52.742;13.650;2023-03-20T00:55:12;101035.44;;;11.13;100.00
18918;BME280;9591;52.742;13.650;2023-03-20T00:58:00;101035.53;;;11.10;100.00
18918;BME280;9591;52.742;13.650;2023-03-20T01:00:48;101019.84;;;11.03;100.00
18918;BME280;9591;52.742;13.650;2023-03-20T01:03:35;101039.38;;;11.00;100.00
18918;BME280;9591;52.742;13.650;2023-03-20T01:06:25;101041.50;;;10.88;100.00
18918;BME280;9591;52.742;13.650;2023-03-20T01:09:13;101041.63;;;10.83;100.00
18918;BME280;9591;52.742;13.650;2023-03-20T01:12:00;100996.75;;;10.46;100.00
18918;BME280;9591;52.742;13.650;2023-03-20T01:14:52;101036.84;;;10.65;100.00
18918;BME280;9591;52.742;13.650;2023-03-20T01:17:42;101050.25;;;10.59;100.00
18918;BME280;9591;52.742;13.650;2023-03-20T01:20:29;101051.38;;;10.50;100.00
18918;BME280;9591;52.742;13.650;2023-03-20T01:23:16;101052.41;;;10.44;100.00
18918;BME280;9591;52.742;13.650;2023-03-20T01:26:04;101056.00;;;10.42;100.00
18918;BME280;9591;52.742;13.650;2023-03-20T01:28:52;101058.59;;;10.43;100.00
18918;BME280;9591;52.742;13.650;2023-03-20T01:31:39;101049.19;;;10.33;100.00
18918;BME280;9591;52.742;13.650;2023-03-20T01:34:28;101060.97;;;10.22;100.00
18918;BME280;9591;52.742;13.650;2023-03-20T01:37:17;101057.50;;;10.18;100.00
18918;BME280;9591;52.742;13.650;2023-03-20T01:40:14;101065.50;;;10.15;100.00
18918;BME280;9591;52.742;13.650;2023-03-20T01:43:05;101059.38;;;10.13;100.00
18918;BME280;9591;52.742;13.650;2023-03-20T01:46:00;101058.97;;;9.94;100.00
18918;BME280;9591;52.742;13.650;2023-03-20T01:49:00;101055.38;;;9.97;100.00
18918;BME280;9591;52.742;13.650;2023-03-20T01:51:51;101057.25;;;9.92;100.00
18918;BME280;9591;52.742;13.650;2023-03-20T01:54:38;101052.94;;;9.88;100.00
18918;BME280;9591;52.742;13.650;2023-03-20T01:57:28;101049.63;;;9.79;100.00
18918;BME280;9591;52.742;13.650;2023-03-20T02:00:29;101047.84;;;9.80;100.00
18918;BME280;9591;52.742;13.650;2023-03-20T02:03:35;101047.19;;;9.70;100.00
18918;BME280;9591;52.742;13.650;2023-03-20T02:06:42;101011.56;;;9.49;100.00
18918;BME280;9591;52.742;13.650;2023-03-20T02:09:35;101046.06;;;9.80;100.00
18918;BME280;9591;52.742;13.650;2023-03-20T02:12:27;101052.22;;;9.81;100.00
18918;BME280;9591;52.742;13.650;2023-03-20T02:15:18;101053.16;;;9.78;100.00
18918;BME280;9591;52.742;13.650;2023-03-20T02:18:28;101060.88;;;9.88;100.00
18918;BME280;9591;52.742;13.650;2023-03-20T02:21:45;101055.75;;;9.81;100.00
18918;BME280;9591;52.742;13.650;2023-03-20T02:31:41;101054.03;;;9.79;100.00
18918;BME280;9591;52.742;13.650;2023-03-20T02:38:18;101053.94;;;9.83;100.00
18918;BME280;9591;52.742;13.650;2023-03-20T02:41:14;101054.72;;;9.87;100.00
18918;BME280;9591;52.742;13.650;2023-03-20T02:44:11;101053.53;;;10.00;100.00
18918;BME280;9591;52.742;13.650;2023-03-20T02:47:02;101056.81;;;10.10;100.00
18918;BME280;9591;52.742;13.650;2023-03-20T02:49:55;101060.19;;;10.16;100.00
18918;BME280;9591;52.742;13.650;2023-03-20T02:52:47;101057.66;;;10.12;100.00
18918;BME280;9591;52.742;13.650;2023-03-20T02:55:40;101060.59;;;10.00;100.00
18918;BME280;9591;52.742;13.650;2023-03-20T02:58:33;101056.25;;;9.97;100.00
18918;BME280;9591;52.742;13.650;2023-03-20T03:01:28;101060.56;;;10.01;100.00
18918;BME280;9591;52.742;13.650;2023-03-20T03:04:19;101053.28;;;10.09;100.00
18918;BME280;9591;52.742;13.650;2023-03-20T03:07:09;101049.75;;;10.10;100.00
18918;BME280;9591;52.742;13.650;2023-03-20T03:10:02;101058.59;;;10.09;100.00
18918;BME280;9591;52.742;13.650;2023-03-20T03:12:53;101062.06;;;10.11;100.00
18918;BME280;9591;52.742;13.650;2023-03-20T03:15:44;101060.84;;;10.26;100.00
18918;BME280;9591;52.742;13.650;2023-03-20T03:18:34;101062.69;;;10.23;100.00
18918;BME280;9591;52.742;13.650;2023-03-20T03:21:23;101059.03;;;10.28;100.00
18918;BME280;9591;52.742;13.650;2023-03-20T03:24:23;101045.78;;;10.28;100.00
18918;BME280;9591;52.742;13.650;2023-03-20T03:27:27;101062.81;;;10.50;100.00
18918;BME280;9591;52.742;13.650;2023-03-20T03:30:20;101058.84;;;10.67;100.00
18918;BME280;9591;52.742;13.650;2023-03-20T03:33:14;101058.28;;;10.56;100.00
18918;BME280;9591;52.742;13.650;2023-03-20T03:36:11;101060.28;;;10.46;100.00
18918;BME280;9591;52.742;13.650;2023-03-20T03:39:08;101066.31;;;10.52;100.00
18918;BME280;9591;52.742;13.650;2023-03-20T03:42:03;101066.34;;;10.51;100.00
18918;BME280;9591;52.742;13.650;2023-03-20T03:44:55;101061.00;;;10.52;100.00
18918;BME280;9591;52.742;13.650;2023-03-20T03:47:48;101059.75;;;10.66;100.00
18918;BME280;9591;52.742;13.650;2023-03-20T03:50:40;101062.63;;;10.58;100.00
18918;BME280;9591;52.742;13.650;2023-03-20T03:53:36;101062.88;;;10.49;100.00
18918;BME280;9591;52.742;13.650;2023-03-20T03:56:28;101063.91;;;10.43;100.00
18918;BME280;9591;52.742;13.650;2023-03-20T03:59:20;101063.03;;;10.43;100.00
18918;BME280;9591;52.742;13.650;2023-03-20T04:02:09;101065.06;;;10.33;100.00
18918;BME280;9591;52.742;13.650;2023-03-20T04:04:58;101065.06;;;10.33;100.00
18918;BME280;9591;52.742;13.650;2023-03-20T04:07:52;101062.38;;;10.35;100.00
18918;BME280;9591;52.742;13.650;2023-03-20T04:10:39;101062.34;;;10.36;100.00
18918;BME280;9591;52.742;13.650;2023-03-20T04:13:26;101066.59;;;10.42;100.00
18918;BME280;9591;52.742;13.650;2023-03-20T04:16:15;101071.84;;;10.43;100.00
18918;BME280;9591;52.742;13.650;2023-03-20T04:19:01;101075.16;;;10.51;100.00
18918;BME280;9591;52.742;13.650;2023-03-20T04:21:50;101083.25;;;10.45;100.00
18918;BME280;9591;52.742;13.650;2023-03-20T04:24:37;101078.88;;;10.44;100.00
18918;BME280;9591;52.742;13.650;2023-03-20T04:27:24;101071.16;;;10.37;100.00
18918;BME280;9591;52.742;13.650;2023-03-20T04:30:11;101076.41;;;10.38;100.00
18918;BME280;9591;52.742;13.650;2023-03-20T04:33:17;101079.88;;;10.73;100.00
18918;BME280;9591;52.742;13.650;2023-03-20T04:36:24;101078.72;;;10.83;100.00
18918;BME280;9591;52.742;13.650;2023-03-20T04:39:13;101084.38;;;10.69;100.00
18918;BME280;9591;52.742;13.650;2023-03-20T04:42:00;101088.06;;;10.64;100.00
18918;BME280;9591;52.742;13.650;2023-03-20T04:44:47;101082.94;;;10.58;100.00
18918;BME280;9591;52.742;13.650;2023-03-20T04:47:35;101089.03;;;10.61;100.00
18918;BME280;9591;52.742;13.650;2023-03-20T04:50:22;101085.59;;;10.58;100.00
18918;BME280;9591;52.742;13.650;2023-03-20T04:53:09;101083.97;;;10.52;100.00
18918;BME280;9591;52.742;13.650;2023-03-20T04:55:58;101089.47;;;10.44;100.00
18918;BME280;9591;52.742;13.650;2023-03-20T04:58:48;101086.56;;;10.54;100.00
18918;BME280;9591;52.742;13.650;2023-03-20T05:01:38;101081.13;;;10.60;100.00
18918;BME280;9591;52.742;13.650;2023-03-20T05:04:25;101081.94;;;10.62;100.00
18918;BME280;9591;52.742;13.650;2023-03-20T05:07:12;101087.50;;;10.52;100.00
18918;BME280;9591;52.742;13.650;2023-03-20T05:10:14;101095.06;;;10.66;100.00
18918;BME280;9591;52.742;13.650;2023-03-20T05:13:10;101100.69;;;10.54;100.00
18918;BME280;9591;52.742;13.650;2023-03-20T05:16:23;101097.28;;;10.49;100.00
18918;BME280;9591;52.742;13.650;2023-03-20T05:19:19;101092.72;;;10.56;100.00
18918;BME280;9591;52.742;13.650;2023-03-20T05:22:28;101091.84;;;10.55;100.00
18918;BME280;9591;52.742;13.650;2023-03-20T05:25:45;101100.72;;;10.52;100.00
18918;BME280;9591;52.742;13.650;2023-03-20T05:28:52;101108.47;;;10.60;100.00
18918;BME280;9591;52.742;13.650;2023-03-20T05:31:57;101098.75;;;10.61;100.00
18918;BME280;9591;52.742;13.650;2023-03-20T05:35:07;101102.31;;;10.60;100.00
18918;BME280;9591;52.742;13.650;2023-03-20T05:38:07;101099.53;;;10.64;100.00
18918;BME280;9591;52.742;13.650;2023-03-20T05:41:17;101100.50;;;10.62;100.00
18918;BME280;9591;52.742;13.650;2023-03-20T05:44:22;101095.75;;;10.74;100.00
18918;BME280;9591;52.742;13.650;2023-03-20T05:47:30;101096.78;;;10.69;100.00
18918;BME280;9591;52.742;13.650;2023-03-20T05:50:35;101100.25;;;10.71;100.00
18918;BME280;9591;52.742;13.650;2023-03-20T05:53:43;101101.75;;;10.81;100.00
18918;BME280;9591;52.742;13.650;2023-03-20T05:56:41;101099.91;;;10.83;100.00
18918;BME280;9591;52.742;13.650;2023-03-20T05:59:51;101098.88;;;10.89;100.00
18918;BME280;9591;52.742;13.650;2023-03-20T06:02:56;101097.25;;;11.15;100.00
18918;BME280;9591;52.742;13.650;2023-03-20T06:06:07;101095.75;;;11.05;100.00
18918;BME280;9591;52.742;13.650;2023-03-20T06:08:54;101099.28;;;11.06;100.00
18918;BME280;9591;52.742;13.650;2023-03-20T06:11:41;101094.81;;;11.08;100.00
18918;BME280;9591;52.742;13.650;2023-03-20T06:14:28;101101.19;;;11.30;100.00
18918;BME280;9591;52.742;13.650;2023-03-20T06:17:21;101107.16;;;11.38;100.00
18918;BME280;9591;52.742;13.650;2023-03-20T06:20:14;101109.06;;;11.33;100.00
18918;BME280;9591;52.742;13.650;2023-03-20T06:23:01;101115.66;;;11.49;100.00
18918;BME280;9591;52.742;13.650;2023-03-20T06:25:48;101130.69;;;11.80;100.00
18918;BME280;9591;52.742;13.650;2023-03-20T06:28:37;101134.84;;;11.89;100.00
18918;BME280;9591;52.742;13.650;2023-03-20T06:31:26;101136.63;;;11.88;100.00
18918;BME280;9591;52.742;13.650;2023-03-20T06:34:14;101147.19;;;11.90;100.00
18918;BME280;9591;52.742;13.650;2023-03-20T06:37:03;101146.03;;;11.98;100.00
18918;BME280;9591;52.742;13.650;2023-03-20T06:39:50;101158.88;;;11.84;100.00
18918;BME280;9591;52.742;13.650;2023-03-20T06:42:37;101162.03;;;11.66;100.00
18918;BME280;9591;52.742;13.650;2023-03-20T06:45:25;101163.59;;;11.73;100.00
18918;BME280;9591;52.742;13.650;2023-03-20T06:48:22;101158.91;;;11.52;100.00
18918;BME280;9591;52.742;13.650;2023-03-20T06:51:11;101162.94;;;11.65;100.00
18918;BME280;9591;52.742;13.650;2023-03-20T06:54:06;101170.94;;;11.63;100.00
18918;BME280;9591;52.742;13.650;2023-03-20T06:56:53;101174.75;;;11.55;100.00
18918;BME280;9591;52.742;13.650;2023-03-20T06:59:40;101169.00;;;11.39;100.00
18918;BME280;9591;52.742;13.650;2023-03-20T07:02:27;101157.31;;;11.46;100.00
18918;BME280;9591;52.742;13.650;2023-03-20T07:05:14;101147.53;;;11.48;100.00
18918;BME280;9591;52.742;13.650;2023-03-20T07:08:04;101166.66;;;11.59;100.00
18918;BME280;9591;52.742;13.650;2023-03-20T07:10:51;101174.75;;;11.55;100.00
18918;BME280;9591;52.742;13.650;2023-03-20T07:13:39;101175.78;;;11.49;100.00
18918;BME280;9591;52.742;13.650;2023-03-20T07:16:41;101169.72;;;11.75;100.00
18918;BME280;9591;52.742;13.650;2023-03-20T07:19:28;101172.31;;;11.78;100.00
18918;BME280;9591;52.742;13.650;2023-03-20T07:22:20;101176.94;;;11.70;100.00
18918;BME280;9591;52.742;13.650;2023-03-20T07:25:10;101172.81;;;11.60;100.00
18918;BME280;9591;52.742;13.650;2023-03-20T07:27:58;101178.41;;;11.50;100.00
18918;BME280;9591;52.742;13.650;2023-03-20T07:30:45;101183.34;;;11.32;100.00
18918;BME280;9591;52.742;13.650;2023-03-20T07:33:34;101181.63;;;11.31;100.00
18918;BME280;9591;52.742;13.650;2023-03-20T07:36:21;101187.72;;;11.34;100.00
18918;BME280;9591;52.742;13.650;2023-03-20T07:39:09;101189.66;;;11.28;100.00
18918;BME280;9591;52.742;13.650;2023-03-20T07:42:01;101196.41;;;11.39;100.00
18918;BME280;9591;52.742;13.650;2023-03-20T07:45:13;101194.22;;;11.54;100.00
18918;BME280;9591;52.742;13.650;2023-03-20T07:48:02;101198.00;;;11.45;100.00
18918;BME280;9591;52.742;13.650;2023-03-20T07:50:50;101208.53;;;11.48;100.00
18918;BME280;9591;52.742;13.650;2023-03-20T07:53:37;101217.41;;;11.47;100.00
18918;BME280;9591;52.742;13.650;2023-03-20T07:56:24;101215.41;;;11.55;100.00
18918;BME280;9591;52.742;13.650;2023-03-20T07:59:12;101213.56;;;11.57;100.00
18918;BME280;9591;52.742;13.650;2023-03-20T08:01:59;101220.75;;;11.54;100.00
18918;BME280;9591;52.742;13.650;2023-03-20T08:04:46;101219.22;;;11.76;100.00
18918;BME280;9591;52.742;13.650;2023-03-20T08:07:33;101219.03;;;11.84;100.00
18918;BME280;9591;52.742;13.650;2023-03-20T08:10:20;101223.44;;;11.85;100.00
18918;BME280;9591;52.742;13.650;2023-03-20T08:13:07;101215.47;;;11.85;100.00
18918;BME280;9591;52.742;13.650;2023-03-20T08:15:55;101221.88;;;12.07;100.00
18918;BME280;9591;52.742;13.650;2023-03-20T08:18:42;101227.53;;;12.23;100.00
18918;BME280;9591;52.742;13.650;2023-03-20T08:21:30;101205.63;;;12.16;100.00
18918;BME280;9591;52.742;13.650;2023-03-20T08:24:17;101230.09;;;12.54;100.00
18918;BME280;9591;52.742;13.650;2023-03-20T08:27:03;101221.25;;;12.53;100.00
18918;BME280;9591;52.742;13.650;2023-03-20T08:29:50;101228.06;;;12.62;100.00
18918;BME280;9591;52.742;13.650;2023-03-20T08:32:39;101220.00;;;12.65;100.00
18918;BME280;9591;52.742;13.650;2023-03-20T08:35:26;101215.75;;;12.59;100.00
18918;BME280;9591;52.742;13.650;2023-03-20T08:38:18;101226.97;;;12.41;100.00
18918;BME280;9591;52.742;13.650;2023-03-20T08:41:05;101232.56;;;12.60;100.00
18918;BME280;9591;52.742;13.650;2023-03-20T08:43:52;101227.72;;;12.72;100.00
18918;BME280;9591;52.742;13.650;2023-03-20T08:46:39;101229.81;;;12.89;100.00
18918;BME280;9591;52.742;13.650;2023-03-20T08:49:29;101218.41;;;12.86;100.00
18918;BME280;9591;52.742;13.650;2023-03-20T08:52:16;101226.03;;;13.21;100.00
18918;BME280;9591;52.742;13.650;2023-03-20T08:55:03;101222.13;;;13.31;100.00
18918;BME280;9591;52.742;13.650;2023-03-20T08:57:53;101211.75;;;13.49;100.00
18918;BME280;9591;52.742;13.650;2023-03-20T09:00:42;101206.75;;;13.64;100.00
18918;BME280;9591;52.742;13.650;2023-03-20T09:03:29;101207.78;;;13.60;100.00
18918;BME280;9591;52.742;13.650;2023-03-20T09:06:17;101198.34;;;13.75;100.00
18918;BME280;9591;52.742;13.650;2023-03-20T09:09:04;101193.50;;;13.86;100.00
18918;BME280;9591;52.742;13.650;2023-03-20T09:11:52;101190.13;;;13.81;100.00
18918;BME280;9591;52.742;13.650;2023-03-20T09:14:39;101200.38;;;14.14;100.00
18918;BME280;9591;52.742;13.650;2023-03-20T09:17:26;101208.88;;;13.55;100.00
18918;BME280;9591;52.742;13.650;2023-03-20T09:20:13;101201.03;;;13.75;100.00
18918;BME280;9591;52.742;13.650;2023-03-20T09:23:01;101215.00;;;13.57;100.00
18918;BME280;9591;52.742;13.650;2023-03-20T09:25:48;101199.66;;;13.87;100.00
18918;BME280;9591;52.742;13.650;2023-03-20T09:28:34;101204.09;;;14.31;100.00
18918;BME280;9591;52.742;13.650;2023-03-20T09:31:21;101211.81;;;13.94;100.00
18918;BME280;9591;52.742;13.650;2023-03-20T09:34:08;101216.53;;;13.64;100.00
18918;BME280;9591;52.742;13.650;2023-03-20T09:36:55;101210.63;;;13.56;100.00
18918;BME280;9591;52.742;13.650;2023-03-20T09:39:43;101211.81;;;13.94;100.00
18918;BME280;9591;52.742;13.650;2023-03-20T09:42:39;101226.13;;;13.68;100.00
18918;BME280;9591;52.742;13.650;2023-03-20T09:45:38;101218.78;;;13.74;100.00
18918;BME280;9591;52.742;13.650;2023-03-20T09:48:32;101216.03;;;13.99;100.00
18918;BME280;9591;52.742;13.650;2023-03-20T09:51:30;101225.09;;;14.17;100.00
18918;BME280;9591;52.742;13.650;2023-03-20T09:54:23;101224.06;;;14.21;100.00
18918;BME280;9591;52.742;13.650;2023-03-20T09:57:16;101225.59;;;14.27;100.00
18918;BME280;9591;52.742;13.650;2023-03-20T10:00:10;101220.50;;;14.44;100.00
18918;BME280;9591;52.742;13.650;2023-03-20T10:02:59;101225.09;;;14.17;100.00
18918;BME280;9591;52.742;13.650;2023-03-20T10:05:50;101217.34;;;14.11;100.00
18918;BME280;9591;52.742;13.650;2023-03-20T10:08:40;101224.75;;;14.26;100.00
18918;BME280;9591;52.742;13.650;2023-03-20T10:11:43;101220.16;;;14.30;100.00
18918;BME280;9591;52.742;13.650;2023-03-20T10:14:46;101234.94;;;14.15;100.00
18918;BME280;9591;52.742;13.650;2023-03-20T10:17:45;101226.09;;;14.15;100.00
18918;BME280;9591;52.742;13.650;2023-03-20T10:20:40;101232.16;;;14.18;100.00
18918;BME280;9591;52.742;13.650;2023-03-20T10:23:34;101224.13;;;14.20;100.00
18918;BME280;9591;52.742;13.650;2023-03-20T10:26:22;101221.25;;;14.24;100.00
18918;BME280;9591;52.742;13.650;2023-03-20T10:29:17;101221.25;;;14.24;99.91
18918;BME280;9591;52.742;13.650;2023-03-20T10:32:19;101223.75;;;14.29;100.00
18918;BME280;9591;52.742;13.650;2023-03-20T10:35:15;101213.66;;;14.37;100.00
18918;BME280;9591;52.742;13.650;2023-03-20T10:38:20;101206.66;;;14.34;99.98
18918;BME280;9591;52.742;13.650;2023-03-20T10:41:14;101217.28;;;14.78;99.56
18918;BME280;9591;52.742;13.650;2023-03-20T10:44:02;101208.25;;;15.02;95.99
18918;BME280;9591;52.742;13.650;2023-03-20T10:46:52;101215.06;;;15.30;94.35
18918;BME280;9591;52.742;13.650;2023-03-20T10:49:46;101174.63;;;14.78;93.55
18918;BME280;9591;52.742;13.650;2023-03-20T10:52:38;101210.78;;;14.85;93.10
18918;BME280;9591;52.742;13.650;2023-03-20T10:55:29;101200.78;;;14.70;93.22
18918;BME280;9591;52.742;13.650;2023-03-20T10:58:20;101205.59;;;15.02;92.36
18918;BME280;9591;52.742;13.650;2023-03-20T11:01:07;101205.72;;;15.20;92.24
18918;BME280;9591;52.742;13.650;2023-03-20T11:03:55;101210.38;;;14.94;91.07
18918;BME280;9591;52.742;13.650;2023-03-20T11:06:47;101212.81;;;14.79;90.67
18918;BME280;9591;52.742;13.650;2023-03-20T11:09:37;101202.97;;;14.60;91.28
18918;BME280;9591;52.742;13.650;2023-03-20T11:12:32;101202.41;;;14.52;92.05
18918;BME280;9591;52.742;13.650;2023-03-20T11:15:22;101205.13;;;14.51;88.77
18918;BME280;9591;52.742;13.650;2023-03-20T11:18:11;101206.50;;;14.61;89.89
18918;BME280;9591;52.742;13.650;2023-03-20T11:21:00;101212.88;;;14.57;91.41
18918;BME280;9591;52.742;13.650;2023-03-20T11:23:48;101209.84;;;14.44;91.55
18918;BME280;9591;52.742;13.650;2023-03-20T11:26:37;101207.47;;;14.36;91.47
18918;BME280;9591;52.742;13.650;2023-03-20T11:29:28;101202.59;;;14.48;93.06
18918;BME280;9591;52.742;13.650;2023-03-20T11:32:26;101209.13;;;14.39;93.82
18918;BME280;9591;52.742;13.650;2023-03-20T11:35:18;101208.53;;;14.54;91.88
18918;BME280;9591;52.742;13.650;2023-03-20T11:38:11;101209.03;;;14.64;90.93
18918;BME280;9591;52.742;13.650;2023-03-20T11:41:03;101193.72;;;14.69;90.52
18918;BME280;9591;52.742;13.650;2023-03-20T11:43:50;101197.75;;;14.57;91.03
18918;BME280;9591;52.742;13.650;2023-03-20T11:46:37;101209.53;;;14.52;92.64
18918;BME280;9591;52.742;13.650;2023-03-20T11:49:25;101166.25;;;14.67;90.68
18918;BME280;9591;52.742;13.650;2023-03-20T11:52:16;101187.78;;;15.03;89.99
18918;BME280;9591;52.742;13.650;2023-03-20T11:55:19;101191.25;;;14.85;91.01
18918;BME280;9591;52.742;13.650;2023-03-20T11:58:14;101184.25;;;15.02;89.21
18918;BME280;9591;52.742;13.650;2023-03-20T12:01:02;101193.19;;;15.01;89.36
18918;BME280;9591;52.742;13.650;2023-03-20T12:03:51;101185.03;;;14.84;90.09
18918;BME280;9591;52.742;13.650;2023-03-20T12:06:47;101184.56;;;14.74;90.95
18918;BME280;9591;52.742;13.650;2023-03-20T12:09:39;101173.69;;;14.37;90.97
18918;BME280;9591;52.742;13.650;2023-03-20T12:12:36;101182.72;;;14.33;91.82
18918;BME280;9591;52.742;13.650;2023-03-20T12:15:29;101181.19;;;14.27;90.88
18918;BME280;9591;52.742;13.650;2023-03-20T12:18:22;101175.03;;;14.03;92.48
18918;BME280;9591;52.742;13.650;2023-03-20T12:21:14;101180.38;;;14.25;93.04
18918;BME280;9591;52.742;13.650;2023-03-20T12:24:07;101168.91;;;14.23;92.93
18918;BME280;9591;52.742;13.650;2023-03-20T12:27:12;101178.66;;;14.24;93.22
18918;BME280;9591;52.742;13.650;2023-03-20T12:30:04;101175.84;;;14.05;93.79
18918;BME280;9591;52.742;13.650;2023-03-20T12:32:59;101168.09;;;14.21;93.65
18918;BME280;9591;52.742;13.650;2023-03-20T12:35:51;101179.25;;;14.09;93.23
18918;BME280;9591;52.742;13.650;2023-03-20T12:38:40;101174.25;;;14.23;95.68
18918;BME280;9591;52.742;13.650;2023-03-20T12:41:29;101159.63;;;14.33;92.87
18918;BME280;9591;52.742;13.650;2023-03-20T12:44:28;101172.47;;;14.46;93.33
18918;BME280;9591;52.742;13.650;2023-03-20T12:47:34;101166.38;;;14.20;93.89
18918;BME280;9591;52.742;13.650;2023-03-20T12:50:32;101163.66;;;14.22;93.35
18918;BME280;9591;52.742;13.650;2023-03-20T12:53:29;101158.22;;;14.47;93.04
18918;BME280;9591;52.742;13.650;2023-03-20T12:56:28;101162.88;;;14.41;93.94
18918;BME280;9591;52.742;13.650;2023-03-20T12:59:21;101155.97;;;14.36;94.10
18918;BME280;9591;52.742;13.650;2023-03-20T13:02:23;101126.72;;;14.34;93.61
18918;BME280;9591;52.742;13.650;2023-03-20T13:05:27;101151.63;;;14.11;93.83
18918;BME280;9591;52.742;13.650;2023-03-20T13:08:31;101151.38;;;14.39;93.43
18918;BME280;9591;52.742;13.650;2023-03-20T13:11:28;101155.47;;;14.26;93.91
18918;BME280;9591;52.742;13.650;2023-03-20T13:14:22;101139.84;;;14.17;92.69
18918;BME280;9591;52.742;13.650;2023-03-20T13:17:16;101138.38;;;14.10;93.96
18918;BME280;9591;52.742;13.650;2023-03-20T13:20:21;101137.69;;;14.49;92.00
18918;BME280;9591;52.742;13.650;2023-03-20T13:23:16;101134.53;;;14.61;91.37
18918;BME280;9591;52.742;13.650;2023-03-20T13:26:22;101133.91;;;14.74;91.47
18918;BME280;9591;52.742;13.650;2023-03-20T13:29:17;101142.22;;;14.47;93.43
18918;BME280;9591;52.742;13.650;2023-03-20T13:32:21;101141.19;;;14.71;92.57
18918;BME280;9591;52.742;13.650;2023-03-20T13:35:32;101144.00;;;14.68;92.25
18918;BME280;9591;52.742;13.650;2023-03-20T13:38:22;101131.97;;;14.78;91.31
18918;BME280;9591;52.742;13.650;2023-03-20T13:41:12;101132.84;;;14.99;90.42
18918;BME280;9591;52.742;13.650;2023-03-20T13:44:02;101133.19;;;14.91;90.16
18918;BME280;9591;52.742;13.650;2023-03-20T13:46:52;101135.56;;;14.97;88.79
18918;BME280;9591;52.742;13.650;2023-03-20T13:49:45;101134.25;;;14.87;90.02
18918;BME280;9591;52.742;13.650;2023-03-20T13:52:41;101118.78;;;14.75;91.80
18918;BME280;9591;52.742;13.650;2023-03-20T13:55:35;101131.19;;;14.56;91.86
18918;BME280;9591;52.742;13.650;2023-03-20T13:58:37;101132.66;;;14.41;92.64
18918;BME280;9591;52.742;13.650;2023-03-20T14:01:37;101132.56;;;14.22;93.55
18918;BME280;9591;52.742;13.650;2023-03-20T14:04:28;101136.06;;;14.23;93.71
18918;BME280;9591;52.742;13.650;2023-03-20T14:07:28;101131.75;;;13.98;94.95
18918;BME280;9591;52.742;13.650;2023-03-20T14:10:35;101133.84;;;13.68;95.43
18918;BME280;9591;52.742;13.650;2023-03-20T14:13:22;101134.72;;;13.45;95.55
18918;BME280;9591;52.742;13.650;2023-03-20T14:16:16;101093.22;;;13.17;96.40
18918;BME280;9591;52.742;13.650;2023-03-20T14:19:06;101129.09;;;13.30;96.02
18918;BME280;9591;52.742;13.650;2023-03-20T14:21:57;101145.16;;;13.27;94.25
18918;BME280;9591;52.742;13.650;2023-03-20T14:24:50;101136.22;;;13.29;95.48
18918;BME280;9591;52.742;13.650;2023-03-20T14:27:52;101131.59;;;13.34;95.14
18918;BME280;9591;52.742;13.650;2023-03-20T14:30:41;101137.31;;;13.47;95.72
18918;BME280;9591;52.742;13.650;2023-03-20T14:33:30;101126.22;;;13.59;95.42
18918;BME280;9591;52.742;13.650;2023-03-20T14:36:19;101124.47;;;13.58;95.54
18918;BME280;9591;52.742;13.650;2023-03-20T14:39:13;101119.06;;;13.83;94.91
18918;BME280;9591;52.742;13.650;2023-03-20T14:42:18;101116.50;;;14.02;93.64
18918;BME280;9591;52.742;13.650;2023-03-20T14:45:26;101117.31;;;14.04;92.70
18918;BME280;9591;52.742;13.650;2023-03-20T14:48:25;101115.56;;;14.03;92.80
18918;BME280;9591;52.742;13.650;2023-03-20T14:51:21;101114.66;;;14.48;90.72
18918;BME280;9591;52.742;13.650;2023-03-20T14:54:24;101092.03;;;14.14;91.74
18918;BME280;9591;52.742;13.650;2023-03-20T14:57:17;101116.06;;;14.34;91.48
18918;BME280;9591;52.742;13.650;2023-03-20T15:00:16;101113.47;;;14.33;91.02
18918;BME280;9591;52.742;13.650;2023-03-20T15:03:06;101115.63;;;14.01;93.80
18918;BME280;9591;52.742;13.650;2023-03-20T15:05:55;101107.59;;;14.03;94.01